createdAt,value
2018-07-09T00:00:59.432Z,17.98
2018-07-09T00:03:28.036Z,17.97
2018-07-09T00:05:56.729Z,17.98
2018-07-09T00:08:25.395Z,17.94
2018-07-09T00:11:02.782Z,17.90
2018-07-09T00:13:31.961Z,17.89
2018-07-09T00:16:00.774Z,17.87
2018-07-09T00:18:29.563Z,17.84
2018-07-09T00:20:58.335Z,17.80
2018-07-09T00:23:27.014Z,17.79
2018-07-09T00:25:56.505Z,17.79
2018-07-09T00:28:25.524Z,17.79
2018-07-09T00:30:54.116Z,17.79
2018-07-09T00:33:23.044Z,17.79
2018-07-09T00:35:51.619Z,17.80
2018-07-09T00:38:20.617Z,17.79
2018-07-09T00:40:49.341Z,17.75
2018-07-09T00:43:18.080Z,16.89
2018-07-09T00:45:46.656Z,17.72
2018-07-09T00:48:15.380Z,17.70
2018-07-09T00:50:44.012Z,17.67
2018-07-09T00:53:12.648Z,17.67
2018-07-09T00:55:41.244Z,17.69
2018-07-09T00:58:09.802Z,17.68
2018-07-09T01:00:38.408Z,17.62
2018-07-09T01:03:07.004Z,17.63
2018-07-09T01:05:35.621Z,17.61
2018-07-09T01:08:04.629Z,17.61
2018-07-09T01:10:33.421Z,17.60
2018-07-09T01:13:02.143Z,17.56
2018-07-09T01:15:30.698Z,17.58
2018-07-09T01:17:59.272Z,17.59
2018-07-09T01:20:27.951Z,17.58
2018-07-09T01:22:56.553Z,17.58
2018-07-09T01:25:25.475Z,17.59
2018-07-09T01:27:54.125Z,17.57
2018-07-09T01:30:22.782Z,17.56
2018-07-09T01:32:51.451Z,17.56
2018-07-09T01:35:20.033Z,17.57
2018-07-09T01:37:48.673Z,17.56
2018-07-09T01:40:17.280Z,17.53
2018-07-09T01:42:46.044Z,17.56
2018-07-09T01:45:14.668Z,17.54
2018-07-09T01:47:43.236Z,17.58
2018-07-09T01:50:11.821Z,17.55
2018-07-09T01:52:40.674Z,17.55
2018-07-09T01:55:09.428Z,17.50
2018-07-09T01:57:38.030Z,17.55
2018-07-09T02:00:06.933Z,17.57
2018-07-09T02:02:35.572Z,17.53
2018-07-09T02:05:04.332Z,17.42
2018-07-09T02:07:33.026Z,17.44
2018-07-09T02:10:01.704Z,17.45
2018-07-09T02:12:30.377Z,17.45
2018-07-09T02:14:59.049Z,17.39
2018-07-09T02:17:27.675Z,17.26
2018-07-09T02:19:56.318Z,17.30
2018-07-09T02:22:25.070Z,17.30
2018-07-09T02:24:53.733Z,17.31
2018-07-09T02:27:22.421Z,17.36
2018-07-09T02:29:51.113Z,17.36
2018-07-09T02:32:19.737Z,17.37
2018-07-09T02:34:48.445Z,17.39
2018-07-09T02:37:17.071Z,17.44
2018-07-09T02:39:45.815Z,17.47
2018-07-09T02:42:14.514Z,17.49
2018-07-09T02:44:43.136Z,17.53
2018-07-09T02:47:11.717Z,17.55
2018-07-09T02:49:40.328Z,17.57
2018-07-09T02:52:08.898Z,17.58
2018-07-09T02:54:37.702Z,17.59
2018-07-09T02:57:06.479Z,17.60
2018-07-09T02:59:35.085Z,17.65
2018-07-09T03:02:04.409Z,17.72
2018-07-09T03:04:33.041Z,17.72
2018-07-09T03:07:01.701Z,17.68
2018-07-09T03:09:30.448Z,17.71
2018-07-09T03:11:59.201Z,17.78
2018-07-09T03:14:27.769Z,17.81
2018-07-09T03:16:56.441Z,17.85
2018-07-09T03:19:25.063Z,17.83
2018-07-09T03:21:53.822Z,17.88
2018-07-09T03:24:22.510Z,17.84
2018-07-09T03:26:51.166Z,17.67
2018-07-09T03:29:19.775Z,17.66
2018-07-09T03:31:48.354Z,17.68
2018-07-09T03:34:17.255Z,17.71
2018-07-09T03:36:45.873Z,17.71
2018-07-09T03:39:14.650Z,17.76
2018-07-09T03:41:43.269Z,17.82
2018-07-09T03:44:12.000Z,17.85
2018-07-09T03:46:40.625Z,17.87
2018-07-09T03:49:09.260Z,17.90
2018-07-09T03:51:37.948Z,17.88
2018-07-09T03:54:06.962Z,17.89
2018-07-09T03:56:35.685Z,17.88
2018-07-09T03:59:04.297Z,17.85
2018-07-09T04:01:32.954Z,17.85
2018-07-09T04:04:01.618Z,17.89
2018-07-09T04:06:30.281Z,17.87
2018-07-09T04:08:58.917Z,17.86
2018-07-09T04:11:27.602Z,17.86
2018-07-09T04:13:56.264Z,17.89
2018-07-09T04:16:24.956Z,18.01
2018-07-09T04:18:53.699Z,18.08
2018-07-09T04:21:22.321Z,18.12
2018-07-09T04:23:51.616Z,18.16
2018-07-09T04:26:20.517Z,18.26
2018-07-09T04:28:49.391Z,18.41
2018-07-09T04:31:18.031Z,18.55
2018-07-09T04:33:46.714Z,18.60
2018-07-09T04:36:15.437Z,18.69
2018-07-09T04:38:44.051Z,18.63
2018-07-09T04:41:12.665Z,18.65
2018-07-09T04:43:41.313Z,18.70
2018-07-09T04:46:09.882Z,18.63
2018-07-09T04:48:38.628Z,18.69
2018-07-09T04:51:07.310Z,18.76
2018-07-09T04:53:36.144Z,18.77
2018-07-09T04:56:05.789Z,18.94
2018-07-09T04:58:34.403Z,19.06
2018-07-09T05:01:03.145Z,19.23
2018-07-09T05:03:31.838Z,19.41
2018-07-09T05:06:00.578Z,19.51
2018-07-09T05:08:29.276Z,19.60
2018-07-09T05:10:57.956Z,19.56
2018-07-09T05:13:26.685Z,19.51
2018-07-09T05:15:55.523Z,19.63
2018-07-09T05:18:24.218Z,19.88
2018-07-09T05:20:52.883Z,20.08
2018-07-09T05:23:21.466Z,20.29
2018-07-09T05:25:50.035Z,20.48
2018-07-09T05:28:18.656Z,20.58
2018-07-09T05:30:47.385Z,20.70
2018-07-09T05:33:16.006Z,20.69
2018-07-09T05:35:44.676Z,20.74
2018-07-09T05:38:13.389Z,20.79
2018-07-09T05:40:42.018Z,20.78
2018-07-09T05:43:10.720Z,20.80
2018-07-09T05:45:39.389Z,20.78
2018-07-09T05:48:08.484Z,20.68
2018-07-09T05:50:37.206Z,20.81
2018-07-09T05:53:05.862Z,20.87
2018-07-09T05:55:34.515Z,20.84
2018-07-09T05:58:03.200Z,20.73
2018-07-09T06:00:31.871Z,20.77
2018-07-09T06:03:00.559Z,20.80
2018-07-09T06:05:29.189Z,20.83
2018-07-09T06:07:57.764Z,20.93
2018-07-09T06:10:26.448Z,20.94
2018-07-09T06:12:55.236Z,20.96
2018-07-09T06:15:23.913Z,21.04
2018-07-09T06:17:52.695Z,20.93
2018-07-09T06:20:21.605Z,21.09
2018-07-09T06:22:50.475Z,21.25
2018-07-09T06:25:19.225Z,21.39
2018-07-09T06:27:47.830Z,21.59
2018-07-09T06:30:16.553Z,21.46
2018-07-09T06:32:45.152Z,21.72
2018-07-09T06:35:13.825Z,21.90
2018-07-09T06:37:42.628Z,21.84
2018-07-09T06:40:11.289Z,21.97
2018-07-09T06:42:40.011Z,22.04
2018-07-09T06:45:08.668Z,22.05
2018-07-09T06:47:37.302Z,22.13
2018-07-09T06:50:06.226Z,22.17
2018-07-09T06:52:34.851Z,22.34
2018-07-09T06:55:03.542Z,22.43
2018-07-09T06:57:32.293Z,22.42
2018-07-09T07:00:00.955Z,22.55
2018-07-09T07:02:29.598Z,22.69
2018-07-09T07:04:58.530Z,22.79
2018-07-09T07:07:27.150Z,22.77
2018-07-09T07:09:55.848Z,22.85
2018-07-09T07:12:24.473Z,22.90
2018-07-09T07:14:53.091Z,22.93
2018-07-09T07:17:21.750Z,22.94
2018-07-09T07:19:50.508Z,22.99
2018-07-09T07:22:20.610Z,23.07
2018-07-09T07:24:49.230Z,23.01
2018-07-09T07:27:17.907Z,22.98
2018-07-09T07:29:46.718Z,22.97
2018-07-09T07:32:15.448Z,23.08
2018-07-09T07:34:44.611Z,23.19
2018-07-09T07:37:13.296Z,23.29
2018-07-09T07:39:41.961Z,23.18
2018-07-09T07:42:10.647Z,23.43
2018-07-09T07:44:39.468Z,23.67
2018-07-09T07:47:08.191Z,23.60
2018-07-09T07:49:36.909Z,23.68
2018-07-09T07:52:05.767Z,23.84
2018-07-09T07:54:34.443Z,23.96
2018-07-09T07:57:03.078Z,23.93
2018-07-09T07:59:31.704Z,24.04
2018-07-09T08:02:00.421Z,24.02
2018-07-09T08:04:29.044Z,24.09
2018-07-09T08:06:57.709Z,24.18
2018-07-09T08:09:26.428Z,24.10
2018-07-09T08:12:59.658Z,24.11
2018-07-09T08:14:23.653Z,24.36
2018-07-09T08:16:52.710Z,24.64
2018-07-09T08:19:21.295Z,24.63
2018-07-09T08:21:49.929Z,24.65
2018-07-09T08:24:18.750Z,24.67
2018-07-09T08:26:47.464Z,24.62
2018-07-09T08:29:16.100Z,24.45
2018-07-09T08:31:44.794Z,24.34
2018-07-09T08:34:13.590Z,24.66
2018-07-09T08:36:42.258Z,24.84
2018-07-09T08:39:10.883Z,24.99
2018-07-09T08:41:39.613Z,25.26
2018-07-09T08:44:08.468Z,25.54
2018-07-09T08:46:37.081Z,25.73
2018-07-09T08:49:05.925Z,25.73
2018-07-09T08:51:34.531Z,25.70
2018-07-09T08:54:03.220Z,25.69
2018-07-09T08:56:31.920Z,25.96
2018-07-09T08:59:00.564Z,26.21
2018-07-09T09:01:29.261Z,26.18
2018-07-09T09:03:57.984Z,26.01
2018-07-09T09:06:26.522Z,25.73
2018-07-09T09:08:55.271Z,25.99
2018-07-09T09:11:23.943Z,26.30
2018-07-09T09:13:52.797Z,26.62
2018-07-09T09:16:21.514Z,26.71
2018-07-09T09:18:50.374Z,26.91
2018-07-09T09:21:18.960Z,26.81
2018-07-09T09:23:47.731Z,26.81
2018-07-09T09:26:16.366Z,26.90
2018-07-09T09:28:45.056Z,27.06
2018-07-09T09:31:13.706Z,27.15
2018-07-09T09:33:42.492Z,27.40
2018-07-09T09:36:11.198Z,27.32
2018-07-09T09:38:39.983Z,27.25
2018-07-09T09:41:08.699Z,27.28
2018-07-09T09:43:37.538Z,27.35
2018-07-09T09:46:06.645Z,27.50
2018-07-09T09:48:35.534Z,27.26
2018-07-09T09:52:07.113Z,26.73
2018-07-09T09:54:35.756Z,27.10
2018-07-09T09:57:04.579Z,27.00
2018-07-09T09:59:33.200Z,27.38
2018-07-09T10:02:01.879Z,27.44
2018-07-09T10:04:30.760Z,27.44
2018-07-09T10:06:59.450Z,27.04
2018-07-09T10:09:28.110Z,27.29
2018-07-09T10:11:56.962Z,27.41
2018-07-09T10:14:26.014Z,27.37
2018-07-09T10:16:54.699Z,27.44
2018-07-09T10:19:23.272Z,27.52
2018-07-09T10:21:51.944Z,27.37
2018-07-09T10:24:20.830Z,27.41
2018-07-09T10:26:49.449Z,27.52
2018-07-09T10:29:18.060Z,27.60
2018-07-09T10:31:46.697Z,27.58
2018-07-09T10:34:15.427Z,27.69
2018-07-09T10:36:44.054Z,27.79
2018-07-09T10:39:12.683Z,27.96
2018-07-09T10:41:41.364Z,28.01
2018-07-09T10:44:10.316Z,27.94
2018-07-09T10:46:38.956Z,27.84
2018-07-09T10:49:07.716Z,27.88
2018-07-09T10:51:36.372Z,28.08
2018-07-09T10:54:05.059Z,28.44
2018-07-09T10:56:33.620Z,28.55
2018-07-09T10:59:02.301Z,28.15
2018-07-09T11:01:31.305Z,28.07
2018-07-09T11:03:59.958Z,28.17
2018-07-09T11:06:28.555Z,28.37
2018-07-09T11:08:57.323Z,28.39
2018-07-09T11:11:25.903Z,28.81
2018-07-09T11:13:54.547Z,28.97
2018-07-09T11:16:23.464Z,29.06
2018-07-09T11:18:52.039Z,29.30
2018-07-09T11:21:20.700Z,29.43
2018-07-09T11:23:49.268Z,29.51
2018-07-09T11:26:18.068Z,29.36
2018-07-09T11:28:46.718Z,29.17
2018-07-09T11:31:15.328Z,29.40
2018-07-09T11:33:43.994Z,29.61
2018-07-09T11:36:12.670Z,29.39
2018-07-09T11:38:41.349Z,29.16
2018-07-09T11:41:10.081Z,29.02
2018-07-09T11:43:38.906Z,29.11
2018-07-09T11:46:07.577Z,29.32
2018-07-09T11:48:36.178Z,29.60
2018-07-09T11:51:04.867Z,29.57
2018-07-09T11:53:33.517Z,29.34
2018-07-09T11:56:02.216Z,29.49
2018-07-09T11:58:30.871Z,29.52
2018-07-09T12:00:59.521Z,29.63
2018-07-09T12:03:28.146Z,29.84
2018-07-09T12:05:57.054Z,29.60
2018-07-09T12:08:25.721Z,29.08
2018-07-09T12:10:54.414Z,29.35
2018-07-09T12:13:23.080Z,29.76
2018-07-09T12:15:51.771Z,30.09
2018-07-09T12:18:20.459Z,29.89
2018-07-09T12:20:49.119Z,29.96
2018-07-09T12:23:17.814Z,30.07
2018-07-09T12:25:46.507Z,30.13
2018-07-09T12:28:15.224Z,30.28
2018-07-09T12:30:43.876Z,30.35
2018-07-09T12:33:12.622Z,30.64
2018-07-09T12:35:41.314Z,30.95
2018-07-09T12:38:10.131Z,30.28
2018-07-09T12:40:38.887Z,30.61
2018-07-09T12:43:07.980Z,31.32
2018-07-09T12:45:36.654Z,31.10
2018-07-09T12:48:05.517Z,30.61
2018-07-09T12:50:34.156Z,30.46
2018-07-09T12:54:05.255Z,31.48
2018-07-09T12:56:34.561Z,31.82
2018-07-09T12:59:03.601Z,31.64
2018-07-09T13:01:32.291Z,31.98
2018-07-09T13:04:01.259Z,32.34
2018-07-09T13:06:29.864Z,32.21
2018-07-09T13:08:58.502Z,32.42
2018-07-09T13:11:27.228Z,32.64
2018-07-09T13:13:55.815Z,32.37
2018-07-09T13:16:24.462Z,31.76
2018-07-09T13:18:53.214Z,31.95
2018-07-09T13:21:21.801Z,32.28
2018-07-09T13:23:50.422Z,31.86
2018-07-09T13:26:19.096Z,33.79
2018-07-09T13:28:47.754Z,34.23
2018-07-09T13:31:16.613Z,35.07
2018-07-09T13:33:45.331Z,36.43
2018-07-09T13:36:14.010Z,36.70
2018-07-09T13:38:42.637Z,37.75
2018-07-09T13:41:11.335Z,38.87
2018-07-09T13:43:39.990Z,38.66
2018-07-09T13:46:08.639Z,35.31
2018-07-09T13:48:37.286Z,36.90
2018-07-09T13:51:06.109Z,35.92
2018-07-09T13:53:37.653Z,36.33
2018-07-09T13:56:06.526Z,36.03
2018-07-09T13:58:35.285Z,35.40
2018-07-09T14:01:03.935Z,36.53
2018-07-09T14:03:32.550Z,36.47
2018-07-09T14:06:01.224Z,35.57
2018-07-09T14:08:29.951Z,34.79
2018-07-09T14:10:58.547Z,34.13
2018-07-09T14:13:27.210Z,31.92
2018-07-09T14:15:55.918Z,32.51
2018-07-09T14:18:24.738Z,31.92
2018-07-09T14:20:53.409Z,31.62
2018-07-09T14:23:22.372Z,31.91
2018-07-09T14:25:51.041Z,32.11
2018-07-09T14:28:19.710Z,31.43
2018-07-09T14:30:48.430Z,31.32
2018-07-09T14:33:17.154Z,31.52
2018-07-09T14:35:45.856Z,32.00
2018-07-09T14:38:14.643Z,32.30
2018-07-09T14:40:43.377Z,32.63
2018-07-09T14:43:12.104Z,32.56
2018-07-09T14:45:40.743Z,32.84
2018-07-09T14:48:09.638Z,32.67
2018-07-09T14:50:38.300Z,32.21
2018-07-09T14:53:06.980Z,32.85
2018-07-09T14:55:35.599Z,33.61
2018-07-09T14:58:04.200Z,34.10
2018-07-09T15:00:32.831Z,33.28
2018-07-09T15:03:01.499Z,34.84
2018-07-09T15:05:30.102Z,35.09
2018-07-09T15:07:58.712Z,34.84
2018-07-09T15:10:27.500Z,35.57
2018-07-09T15:12:56.305Z,35.24
2018-07-09T15:15:24.912Z,34.98
2018-07-09T15:17:53.699Z,35.17
2018-07-09T15:20:22.518Z,33.91
2018-07-09T15:22:51.165Z,32.85
2018-07-09T15:25:19.876Z,31.82
2018-07-09T15:27:48.476Z,30.32
2018-07-09T15:30:17.151Z,30.12
2018-07-09T15:32:45.789Z,29.88
2018-07-09T15:35:14.525Z,29.38
2018-07-09T15:37:43.189Z,28.89
2018-07-09T15:40:12.062Z,28.47
2018-07-09T15:42:40.803Z,28.46
2018-07-09T15:45:09.434Z,28.30
2018-07-09T15:47:38.042Z,27.71
2018-07-09T15:50:06.883Z,27.59
2018-07-09T15:52:35.619Z,27.04
2018-07-09T15:55:04.384Z,26.96
2018-07-09T15:57:33.134Z,26.63
2018-07-09T16:00:01.777Z,26.55
2018-07-09T16:02:30.507Z,26.59
2018-07-09T16:04:59.130Z,26.49
2018-07-09T16:07:27.726Z,26.57
2018-07-09T16:09:56.297Z,26.42
2018-07-09T16:12:25.250Z,26.40
2018-07-09T16:14:53.807Z,26.44
2018-07-09T16:17:22.481Z,26.19
2018-07-09T16:19:51.044Z,26.20
2018-07-09T16:22:19.666Z,25.91
2018-07-09T16:24:48.404Z,25.71
2018-07-09T16:27:16.986Z,25.96
2018-07-09T16:29:45.731Z,25.97
2018-07-09T16:32:14.590Z,25.97
2018-07-09T16:34:43.258Z,25.94
2018-07-09T16:37:11.927Z,25.75
2018-07-09T16:39:40.600Z,25.54
2018-07-09T16:42:09.311Z,25.67
2018-07-09T16:44:37.958Z,25.69
2018-07-09T16:47:06.923Z,25.41
2018-07-09T16:49:35.552Z,25.54
2018-07-09T16:52:04.201Z,25.57
2018-07-09T16:54:32.784Z,25.49
2018-07-09T16:57:01.472Z,25.51
2018-07-09T16:59:30.082Z,25.61
2018-07-09T17:01:58.713Z,25.61
2018-07-09T17:04:27.409Z,25.43
2018-07-09T17:06:55.993Z,25.39
2018-07-09T17:09:24.686Z,25.27
2018-07-09T17:11:53.381Z,25.41
2018-07-09T17:14:22.203Z,25.49
2018-07-09T17:16:50.815Z,25.29
2018-07-09T17:19:19.457Z,25.30
2018-07-09T17:21:49.569Z,25.20
2018-07-09T17:24:18.301Z,25.37
2018-07-09T17:26:46.988Z,25.26
2018-07-09T17:29:15.698Z,25.24
2018-07-09T17:31:44.303Z,25.29
2018-07-09T17:34:13.400Z,25.29
2018-07-09T17:36:42.014Z,25.20
2018-07-09T17:39:10.940Z,25.25
2018-07-09T17:41:39.769Z,25.31
2018-07-09T17:44:08.535Z,25.16
2018-07-09T17:46:37.213Z,25.18
2018-07-09T17:49:05.916Z,25.18
2018-07-09T17:51:34.535Z,25.19
2018-07-09T17:54:03.148Z,25.16
2018-07-09T17:56:31.771Z,25.08
2018-07-09T17:59:00.414Z,25.03
2018-07-09T18:01:29.201Z,25.10
2018-07-09T18:03:57.860Z,25.15
2018-07-09T18:06:26.523Z,25.10
2018-07-09T18:08:55.227Z,25.21
2018-07-09T18:11:23.837Z,25.07
2018-07-09T18:13:52.452Z,25.14
2018-07-09T18:16:21.136Z,25.12
2018-07-09T18:18:49.786Z,25.14
2018-07-09T18:21:18.489Z,25.14
2018-07-09T18:23:47.125Z,25.09
2018-07-09T18:26:17.602Z,25.11
2018-07-09T18:28:46.808Z,25.07
2018-07-09T18:31:16.201Z,25.02
2018-07-09T18:33:45.842Z,24.93
2018-07-09T18:36:15.402Z,24.84
2018-07-09T18:38:44.712Z,24.79
2018-07-09T18:41:13.388Z,24.74
2018-07-09T18:43:42.112Z,24.68
2018-07-09T18:46:10.820Z,24.63
2018-07-09T18:48:39.581Z,24.52
2018-07-09T18:51:08.615Z,24.43
2018-07-09T18:53:37.728Z,24.39
2018-07-09T18:56:06.484Z,24.33
2018-07-09T18:58:35.423Z,24.27
2018-07-09T19:01:04.225Z,24.19
2018-07-09T19:03:32.871Z,24.12
2018-07-09T19:07:07.949Z,24.06
2018-07-09T19:09:37.896Z,23.95
2018-07-09T19:12:07.952Z,23.90
2018-07-09T19:14:40.658Z,23.83
2018-07-09T19:18:20.595Z,23.78
2018-07-09T19:21:27.455Z,23.69
2018-07-09T19:23:55.355Z,23.58
2018-07-09T19:26:22.812Z,23.52
2018-07-09T19:28:50.564Z,23.46
2018-07-09T19:31:18.388Z,23.39
2018-07-09T19:33:45.958Z,23.35
2018-07-09T19:36:13.721Z,23.33
2018-07-09T19:38:41.306Z,23.29
2018-07-09T19:41:09.261Z,23.16
2018-07-09T19:43:37.363Z,23.06
2018-07-09T19:46:04.776Z,23.03
2018-07-09T19:48:32.206Z,22.95
2018-07-09T19:50:59.553Z,22.88
2018-07-09T19:53:26.923Z,22.86
2018-07-09T19:55:54.300Z,22.81
2018-07-09T19:58:21.677Z,22.77
2018-07-09T20:00:49.117Z,22.74
2018-07-09T20:03:16.538Z,22.70
2018-07-09T20:05:43.986Z,22.66
2018-07-09T20:08:11.454Z,22.45
2018-07-09T20:10:44.030Z,22.49
2018-07-09T20:13:16.507Z,22.42
2018-07-09T20:15:49.072Z,22.27
2018-07-09T20:18:16.491Z,22.23
2018-07-09T20:20:44.001Z,22.18
2018-07-09T20:23:11.386Z,22.13
2018-07-09T20:25:38.861Z,22.09
2018-07-09T20:28:06.288Z,22.03
2018-07-09T20:30:33.720Z,21.91
2018-07-09T20:33:01.104Z,21.87
2018-07-09T20:35:28.445Z,21.82
2018-07-09T20:37:55.873Z,21.73
2018-07-09T20:40:23.221Z,21.71
2018-07-09T20:42:50.559Z,21.66
2018-07-09T20:45:18.233Z,21.59
2018-07-09T20:47:46.533Z,21.49
2018-07-09T20:50:14.019Z,21.45
2018-07-09T20:52:41.383Z,21.41
2018-07-09T20:55:08.890Z,21.37
2018-07-09T20:57:36.622Z,21.30
2018-07-09T21:00:04.005Z,21.27
2018-07-09T21:02:32.179Z,21.30
2018-07-09T21:04:59.547Z,21.28
2018-07-09T21:07:27.282Z,21.24
2018-07-09T21:09:54.711Z,21.20
2018-07-09T21:12:22.119Z,21.10
2018-07-09T21:14:49.502Z,21.09
2018-07-09T21:17:16.963Z,21.05
2018-07-09T21:19:44.421Z,20.95
2018-07-09T21:22:11.953Z,20.89
2018-07-09T21:24:39.452Z,20.82
2018-07-09T21:27:06.926Z,20.77
2018-07-09T21:29:34.413Z,20.71
2018-07-09T21:32:01.879Z,20.63
2018-07-09T21:34:29.287Z,20.57
2018-07-09T21:36:56.961Z,20.53
2018-07-09T21:39:24.467Z,20.49
2018-07-09T21:41:51.931Z,20.42
2018-07-09T21:44:19.355Z,20.32
2018-07-09T21:46:46.993Z,20.29
2018-07-09T21:49:14.564Z,20.25
2018-07-09T21:51:41.975Z,20.23
2018-07-09T21:54:09.363Z,20.09
2018-07-09T21:56:36.818Z,20.09
2018-07-09T21:59:04.350Z,20.01
2018-07-09T22:01:31.810Z,19.89
2018-07-09T22:03:59.165Z,19.88
2018-07-09T22:06:27.088Z,19.78
2018-07-09T22:08:54.604Z,19.74
2018-07-09T22:11:22.114Z,19.70
2018-07-09T22:13:49.616Z,19.67
2018-07-09T22:16:17.281Z,19.67
2018-07-09T22:18:44.945Z,19.68
2018-07-09T22:21:12.360Z,19.63
2018-07-09T22:23:39.836Z,19.54
2018-07-09T22:26:07.264Z,19.50
2018-07-09T22:28:34.700Z,19.48
2018-07-09T22:31:03.366Z,19.48
2018-07-09T22:33:32.307Z,19.46
2018-07-09T22:36:00.887Z,19.43
2018-07-09T22:38:29.531Z,19.42
2018-07-09T22:40:58.321Z,19.38
2018-07-09T22:43:38.165Z,19.32
2018-07-09T22:46:06.784Z,19.26
2018-07-09T22:48:35.483Z,19.22
2018-07-09T22:51:04.372Z,19.11
2018-07-09T22:53:32.993Z,19.03
2018-07-09T22:56:10.139Z,19.01
2018-07-09T22:58:39.986Z,18.97
2018-07-09T23:01:08.720Z,18.89
2018-07-09T23:03:37.424Z,18.89
2018-07-09T23:06:06.102Z,18.90
2018-07-09T23:08:34.823Z,18.84
2018-07-09T23:13:14.494Z,18.80
2018-07-09T23:15:54.413Z,18.79
2018-07-09T23:18:34.316Z,18.79
2018-07-09T23:23:08.918Z,18.73
2018-07-09T23:25:36.299Z,18.63
2018-07-09T23:28:03.702Z,18.62
2018-07-09T23:30:37.214Z,18.55
2018-07-09T23:33:04.610Z,18.51
2018-07-09T23:35:32.012Z,18.52
2018-07-09T23:37:59.426Z,18.50
2018-07-09T23:40:26.976Z,18.49
2018-07-09T23:42:54.367Z,18.48
2018-07-09T23:45:21.791Z,18.46
2018-07-09T23:47:49.228Z,18.42
2018-07-09T23:50:16.659Z,18.42
2018-07-09T23:52:44.109Z,18.33
2018-07-09T23:55:11.507Z,18.34
2018-07-09T23:59:53.187Z,18.29
